Time;durP1;ratioP1;P1;durP2;ratioP2;P2;SDS_P1;SDS_P2;PMS_P1;PMS_P2;Temp;Humidity;BMP_temperature;BMP_pressure;BME280_temperature;BME280_humidity;BME280_pressure;Samples;Min_cycle;Max_cycle;Signal;HPM_P1;HPM_P2
2022/11/30 00:00:46;;;;;;;127.45;40.10;;;4.50;64.20;;;;;;5022543;28;20038;-70
2022/11/30 00:03:11;;;;;;;197.10;46.15;;;4.50;64.20;;;;;;5036970;28;20083;-71
2022/11/30 00:05:37;;;;;;;181.23;39.63;;;4.50;64.20;;;;;;5034532;28;20025;-70
2022/11/30 00:08:02;;;;;;;154.52;42.50;;;4.50;64.20;;;;;;5032552;28;20029;-69
2022/11/30 00:10:28;;;;;;;259.00;44.25;;;4.50;64.10;;;;;;5036681;28;20064;-69
2022/11/30 00:12:53;;;;;;;220.55;41.35;;;4.50;64.20;;;;;;5033551;28;20072;-71
2022/11/30 00:15:19;;;;;;;270.02;46.25;;;4.50;64.20;;;;;;5031217;28;20036;-72
2022/11/30 00:17:46;;;;;;;63.72;30.38;;;4.50;64.20;;;;;;5033292;28;20025;-71
2022/11/30 00:20:13;;;;;;;134.60;36.20;;;4.50;64.10;;;;;;5030015;28;20315;-71
2022/11/30 00:22:39;;;;;;;117.22;38.33;;;4.50;64.20;;;;;;5035498;28;20041;-73
2022/11/30 00:25:05;;;;;;;252.02;43.20;;;4.50;64.10;;;;;;5035648;28;20029;-70
2022/11/30 00:27:32;;;;;;;87.43;33.83;;;4.60;64.20;;;;;;5038111;28;20064;-71
2022/11/30 00:29:59;;;;;;;127.55;38.53;;;4.50;64.20;;;;;;5024404;28;20066;-71
2022/11/30 00:32:26;;;;;;;144.00;36.97;;;4.50;64.20;;;;;;5012226;28;20419;-72
2022/11/30 00:34:52;;;;;;;168.98;35.65;;;4.50;64.20;;;;;;5035477;28;20483;-71
2022/11/30 00:37:17;;;;;;;56.05;27.13;;;4.50;64.10;;;;;;5035638;28;20034;-71
2022/11/30 00:39:43;;;;;;;97.82;34.45;;;4.50;64.10;;;;;;5030214;28;20025;-71
2022/11/30 00:42:08;;;;;;;66.45;28.55;;;4.60;64.10;;;;;;5033008;28;20055;-71
2022/11/30 00:44:34;;;;;;;164.70;36.90;;;4.60;64.20;;;;;;5037181;28;20033;-70
2022/11/30 00:47:02;;;;;;;86.38;30.80;;;4.60;64.10;;;;;;5036926;28;20295;-71
2022/11/30 00:49:32;;;;;;;77.97;33.22;;;4.60;64.20;;;;;;5033243;28;20288;-71
2022/11/30 00:51:58;;;;;;;101.82;32.13;;;4.60;64.10;;;;;;5024571;28;20028;-70
2022/11/30 00:54:24;;;;;;;64.28;29.08;;;4.60;64.20;;;;;;5027871;28;20080;-71
2022/11/30 00:56:49;;;;;;;65.55;26.17;;;4.60;64.20;;;;;;5032715;28;20037;-71
2022/11/30 00:59:15;;;;;;;32.22;19.67;;;4.50;64.20;;;;;;5030893;28;20025;-71
2022/11/30 01:01:41;;;;;;;35.38;21.38;;;4.60;64.10;;;;;;5030590;28;20021;-71
2022/11/30 01:04:06;;;;;;;37.25;20.95;;;4.60;64.10;;;;;;5031747;28;20018;-72
2022/11/30 01:06:32;;;;;;;31.77;19.00;;;4.60;64.30;;;;;;5030561;28;20026;-71
2022/11/30 01:08:58;;;;;;;36.25;20.00;;;4.60;64.30;;;;;;5043366;28;20343;-71
2022/11/30 01:11:25;;;;;;;37.40;19.17;;;4.50;64.20;;;;;;5029257;28;20052;-71
2022/11/30 01:13:52;;;;;;;28.30;16.80;;;4.50;64.40;;;;;;5013576;28;20042;-71
2022/11/30 01:16:27;;;;;;;53.58;23.85;;;4.50;64.20;;;;;;5014354;28;20326;-71
2022/11/30 01:18:53;;;;;;;66.30;26.90;;;4.50;64.30;;;;;;5030292;28;20068;-70
2022/11/30 01:21:22;;;;;;;34.95;18.95;;;4.50;64.30;;;;;;5018555;28;20058;-71
2022/11/30 01:23:48;;;;;;;23.67;15.98;;;4.50;64.40;;;;;;5037032;28;20431;-71
2022/11/30 01:26:15;;;;;;;28.23;16.25;;;4.50;64.20;;;;;;5038105;28;20036;-71
2022/11/30 01:28:42;;;;;;;39.95;19.90;;;4.50;64.20;;;;;;5032810;28;20181;-71
2022/11/30 01:31:11;;;;;;;26.08;16.98;;;4.50;64.40;;;;;;5026043;28;20057;-71
2022/11/30 01:33:37;;;;;;;25.55;16.23;;;4.50;64.30;;;;;;5034295;28;20113;-70
2022/11/30 01:36:05;;;;;;;27.90;15.48;;;4.50;64.20;;;;;;5021692;28;20536;-70
2022/11/30 01:38:37;;;;;;;31.77;17.27;;;4.50;64.40;;;;;;5022501;28;20046;-70
2022/11/30 01:41:04;;;;;;;21.95;13.90;;;4.50;64.50;;;;;;5030415;28;20113;-71
2022/11/30 01:43:41;;;;;;;18.88;12.25;;;4.50;64.40;;;;;;5023808;28;20024;-71
2022/11/30 01:46:22;;;;;;;21.08;14.13;;;4.50;64.20;;;;;;5003874;28;20022;-71
2022/11/30 01:48:58;;;;;;;23.65;13.85;;;4.60;64.50;;;;;;5031748;28;20029;-70
2022/11/30 01:51:27;;;;;;;19.08;12.55;;;4.60;64.70;;;;;;5023556;28;20037;-72
2022/11/30 01:53:53;;;;;;;24.10;14.23;;;4.50;64.80;;;;;;5034743;28;20048;-70
2022/11/30 01:56:19;;;;;;;22.38;13.35;;;4.50;64.80;;;;;;5021627;28;20415;-70
2022/11/30 01:58:44;;;;;;;19.83;12.57;;;4.50;64.60;;;;;;5012628;28;20033;-70
2022/11/30 02:01:10;;;;;;;19.50;11.85;;;4.50;64.70;;;;;;5031023;28;20030;-70
2022/11/30 02:03:57;;;;;;;17.92;11.35;;;4.50;64.70;;;;;;5042208;28;20036;-71
2022/11/30 02:06:24;;;;;;;18.45;11.30;;;4.40;65.10;;;;;;5005033;28;20022;-69
2022/11/30 02:08:51;;;;;;;17.88;11.13;;;4.40;65.30;;;;;;5031716;28;20385;-70
2022/11/30 02:11:16;;;;;;;14.15;9.55;;;4.40;65.40;;;;;;5013659;28;20040;-70
2022/11/30 02:13:54;;;;;;;13.45;8.63;;;4.40;65.10;;;;;;5032964;28;20236;-71
2022/11/30 02:16:47;;;;;;;15.43;9.85;;;4.40;65.20;;;;;;5030540;28;20323;-71
2022/11/30 02:19:46;;;;;;;15.65;9.57;;;4.40;65.10;;;;;;5030632;28;20033;-69
2022/11/30 02:22:32;;;;;;;14.07;8.82;;;4.40;65.30;;;;;;5032949;28;20041;-71
2022/11/30 02:25:26;;;;;;;14.48;9.40;;;4.40;65.40;;;;;;5028949;28;20480;-71
2022/11/30 02:27:57;;;;;;;20.73;11.77;;;4.50;65.30;;;;;;5035961;28;20034;-70
2022/11/30 02:30:23;;;;;;;18.02;10.68;;;4.40;65.90;;;;;;5015547;28;20057;-69
2022/11/30 02:33:11;;;;;;;12.10;7.15;;;4.40;65.80;;;;;;5032130;28;20504;-69
2022/11/30 02:35:41;;;;;;;17.80;9.93;;;4.40;65.80;;;;;;5026401;28;20326;-70
2022/11/30 02:38:09;;;;;;;13.98;9.38;;;4.40;65.50;;;;;;5021106;28;20053;-70
2022/11/30 02:40:35;;;;;;;16.38;10.00;;;4.40;65.90;;;;;;5023473;28;20060;-70
2022/11/30 02:43:03;;;;;;;17.83;11.13;;;4.40;66.10;;;;;;5010390;28;20223;-70
2022/11/30 02:45:34;;;;;;;22.77;13.48;;;4.40;66.00;;;;;;5008251;28;20051;-70
2022/11/30 02:48:12;;;;;;;25.27;14.45;;;4.40;66.10;;;;;;5009411;28;20086;-70
2022/11/30 02:50:55;;;;;;;18.40;12.32;;;4.40;66.00;;;;;;5010324;28;20029;-70
2022/11/30 02:53:21;;;;;;;21.92;13.07;;;4.50;65.60;;;;;;5009680;28;20037;-71
2022/11/30 02:55:47;;;;;;;23.40;14.02;;;4.50;65.90;;;;;;5008629;28;20037;-70
2022/11/30 02:58:15;;;;;;;25.67;15.00;;;4.50;66.20;;;;;;5006688;28;20029;-69
2022/11/30 03:00:40;;;;;;;19.50;12.43;;;4.50;65.70;;;;;;5022815;28;20025;-70
2022/11/30 03:03:06;;;;;;;26.75;14.80;;;4.40;66.20;;;;;;5016662;28;20326;-70
2022/11/30 03:05:31;;;;;;;23.58;14.13;;;4.40;66.60;;;;;;5027164;28;20104;-70
2022/11/30 03:07:57;;;;;;;17.17;11.57;;;4.40;66.10;;;;;;5022579;28;20037;-71
2022/11/30 03:10:23;;;;;;;16.90;10.68;;;4.50;65.80;;;;;;5019847;28;20121;-70
2022/11/30 03:12:51;;;;;;;16.38;10.75;;;4.50;66.20;;;;;;5019556;28;20365;-70
2022/11/30 03:15:17;;;;;;;14.88;10.50;;;4.40;67.00;;;;;;5025777;28;20029;-71
2022/11/30 03:17:42;;;;;;;16.98;10.77;;;4.50;65.60;;;;;;5016026;28;20038;-71
2022/11/30 03:20:11;;;;;;;13.35;8.43;;;4.50;66.90;;;;;;5026936;28;20041;-71
2022/11/30 03:22:36;;;;;;;15.23;9.70;;;4.50;66.50;;;;;;5025257;28;20069;-71
2022/11/30 03:25:02;;;;;;;13.60;8.93;;;4.50;66.70;;;;;;5021114;28;20118;-70
2022/11/30 03:27:28;;;;;;;14.18;9.30;;;4.50;67.10;;;;;;5024072;28;20029;-71
2022/11/30 03:29:53;;;;;;;15.52;9.63;;;4.50;67.40;;;;;;5024995;28;20034;-70
2022/11/30 03:32:19;;;;;;;23.70;13.52;;;4.50;67.30;;;;;;5021911;28;20026;-70
2022/11/30 03:34:47;;;;;;;17.00;10.63;;;4.50;67.00;;;;;;5026689;28;20041;-71
2022/11/30 03:37:13;;;;;;;15.38;10.20;;;4.50;67.20;;;;;;5025828;28;20373;-71
2022/11/30 03:39:38;;;;;;;14.90;9.30;;;4.50;66.10;;;;;;5020924;28;20037;-71
2022/11/30 03:42:04;;;;;;;14.45;9.57;;;4.60;66.40;;;;;;5030039;28;20068;-70
2022/11/30 03:44:30;;;;;;;20.58;11.68;;;4.60;67.50;;;;;;5030560;28;20049;-70
2022/11/30 03:46:55;;;;;;;12.75;8.60;;;4.60;67.60;;;;;;5029681;28;20022;-71
2022/11/30 03:49:21;;;;;;;14.32;9.18;;;4.50;67.70;;;;;;5033823;28;20417;-70
2022/11/30 03:51:49;;;;;;;14.77;9.30;;;4.50;67.60;;;;;;5032806;28;20104;-70
2022/11/30 03:54:15;;;;;;;16.02;9.52;;;4.50;68.40;;;;;;5027102;28;20029;-70
2022/11/30 03:56:40;;;;;;;13.15;8.70;;;4.40;69.00;;;;;;5037238;28;20025;-70
2022/11/30 03:59:06;;;;;;;15.93;9.32;;;4.40;67.80;;;;;;5027905;28;22190;-70
2022/11/30 04:01:31;;;;;;;13.48;8.80;;;4.50;67.80;;;;;;5006813;28;20710;-70
2022/11/30 04:03:57;;;;;;;17.70;9.95;;;4.50;68.40;;;;;;5013064;28;20034;-70
2022/11/30 04:06:23;;;;;;;14.95;9.52;;;4.50;68.10;;;;;;5033820;28;20072;-70
2022/11/30 04:08:51;;;;;;;12.55;8.30;;;4.50;68.10;;;;;;5020173;28;20091;-70
2022/11/30 04:11:17;;;;;;;15.38;10.02;;;4.50;68.20;;;;;;5013583;28;20203;-70
2022/11/30 04:13:43;;;;;;;13.48;9.15;;;4.50;67.70;;;;;;5020382;28;20044;-70
2022/11/30 04:16:09;;;;;;;15.40;10.32;;;4.50;68.90;;;;;;5017821;28;20059;-70
2022/11/30 04:18:36;;;;;;;16.40;10.55;;;4.50;68.20;;;;;;5029185;28;20033;-70
2022/11/30 04:21:02;;;;;;;21.23;12.25;;;4.60;68.90;;;;;;5042418;28;20025;-70
2022/11/30 04:23:33;;;;;;;17.20;11.25;;;4.50;69.80;;;;;;5024303;28;20121;-70
2022/11/30 04:26:01;;;;;;;17.15;10.73;;;4.50;68.90;;;;;;5030423;28;20034;-70
2022/11/30 04:28:26;;;;;;;28.00;15.40;;;4.50;69.30;;;;;;5031478;28;20033;-71
2022/11/30 04:30:52;;;;;;;24.45;14.75;;;4.50;69.60;;;;;;5042227;28;20033;-71
2022/11/30 04:33:21;;;;;;;18.90;11.75;;;4.50;70.10;;;;;;5035307;28;20449;-70
2022/11/30 04:35:56;;;;;;;24.20;13.98;;;4.50;68.80;;;;;;5036088;28;20029;-70
2022/11/30 04:38:23;;;;;;;22.17;12.95;;;4.50;69.20;;;;;;5030246;28;20053;-70
2022/11/30 04:40:48;;;;;;;19.77;12.73;;;4.50;68.70;;;;;;5034279;28;20030;-70
2022/11/30 04:43:14;;;;;;;19.45;11.85;;;4.50;69.10;;;;;;5040136;28;20056;-70
2022/11/30 04:45:40;;;;;;;21.35;12.40;;;4.50;68.50;;;;;;5028286;28;20048;-70
2022/11/30 04:48:06;;;;;;;14.88;10.73;;;4.50;69.10;;;;;;5028890;28;20049;-70
2022/11/30 04:50:32;;;;;;;16.77;10.98;;;4.50;68.00;;;;;;5028895;28;20512;-69
2022/11/30 04:52:58;;;;;;;24.80;13.93;;;4.50;68.40;;;;;;5041782;28;20035;-70
2022/11/30 04:55:23;;;;;;;18.77;12.13;;;4.50;68.60;;;;;;5017217;28;20090;-70
2022/11/30 04:57:49;;;;;;;25.15;14.40;;;4.50;67.70;;;;;;5038967;28;20037;-71
2022/11/30 05:00:17;;;;;;;21.73;13.38;;;4.50;68.50;;;;;;5022608;28;20025;-70
2022/11/30 05:02:43;;;;;;;19.33;13.13;;;4.50;68.00;;;;;;5028478;28;20130;-70
2022/11/30 05:05:09;;;;;;;16.92;11.50;;;4.50;68.60;;;;;;5022548;28;20520;-70
2022/11/30 05:07:35;;;;;;;18.15;11.75;;;4.40;67.80;;;;;;5036216;28;20418;-70
2022/11/30 05:10:01;;;;;;;41.38;18.67;;;4.50;67.70;;;;;;5002702;28;20065;-70
2022/11/30 05:12:27;;;;;;;36.58;18.80;;;4.40;69.00;;;;;;5011550;28;20033;-70
2022/11/30 05:14:52;;;;;;;27.70;16.13;;;4.40;67.80;;;;;;5016097;28;20034;-70
2022/11/30 05:17:18;;;;;;;20.58;13.50;;;4.40;69.00;;;;;;5015449;28;20037;-70
2022/11/30 05:19:43;;;;;;;18.40;11.68;;;4.40;68.30;;;;;;5015953;28;20045;-70
2022/11/30 05:22:09;;;;;;;32.47;17.02;;;4.40;68.30;;;;;;5034583;28;20037;-70
2022/11/30 05:24:34;;;;;;;32.97;16.73;;;4.40;68.00;;;;;;5032267;28;20028;-70
2022/11/30 05:27:00;;;;;;;24.65;14.98;;;4.30;68.30;;;;;;5026541;28;20316;-70
2022/11/30 05:29:26;;;;;;;17.90;12.85;;;4.30;67.40;;;;;;5028322;28;20037;-70
2022/11/30 05:31:51;;;;;;;33.70;18.02;;;4.30;66.70;;;;;;5019240;28;20033;-70
2022/11/30 05:34:17;;;;;;;24.40;15.57;;;4.30;67.20;;;;;;5023218;28;20036;-70
2022/11/30 05:36:42;;;;;;;30.13;16.80;;;4.30;67.20;;;;;;5025797;28;20472;-70
2022/11/30 05:39:08;;;;;;;18.85;13.25;;;4.30;66.80;;;;;;5023383;28;20069;-69
2022/11/30 05:41:34;;;;;;;18.33;12.65;;;4.40;66.70;;;;;;5032129;28;20040;-70
2022/11/30 05:44:00;;;;;;;43.50;22.00;;;4.40;66.60;;;;;;5022034;28;20029;-70
2022/11/30 05:46:25;;;;;;;17.48;12.35;;;4.40;66.60;;;;;;5025631;28;20030;-70
2022/11/30 05:48:51;;;;;;;17.08;11.88;;;4.30;66.20;;;;;;5032925;28;20029;-69
2022/11/30 05:51:18;;;;;;;15.88;10.93;;;4.50;65.90;;;;;;5030298;28;20041;-70
2022/11/30 05:53:45;;;;;;;19.77;12.60;;;4.40;66.40;;;;;;5023471;28;20036;-69
2022/11/30 05:56:13;;;;;;;17.98;11.98;;;4.40;67.20;;;;;;5029470;28;20044;-70
2022/11/30 05:58:39;;;;;;;15.57;11.18;;;4.40;67.30;;;;;;5026888;28;20025;-70
2022/11/30 06:01:05;;;;;;;20.48;13.73;;;4.30;67.30;;;;;;5031238;28;20430;-69
2022/11/30 06:03:33;;;;;;;31.65;16.60;;;4.30;68.10;;;;;;5029579;28;20025;-69
2022/11/30 06:05:59;;;;;;;20.65;14.38;;;4.30;68.80;;;;;;5029822;28;20030;-69
2022/11/30 06:08:28;;;;;;;23.42;15.02;;;4.20;68.80;;;;;;5026562;28;20029;-69
2022/11/30 06:10:58;;;;;;;23.02;13.75;;;4.20;68.20;;;;;;5028734;28;20156;-70
2022/11/30 06:13:23;;;;;;;33.35;18.05;;;4.20;68.00;;;;;;5027904;28;20014;-69
2022/11/30 06:15:49;;;;;;;40.95;20.05;;;4.20;67.40;;;;;;5022111;28;20198;-69
2022/11/30 06:18:15;;;;;;;20.60;13.85;;;4.20;67.70;;;;;;5030051;28;20028;-70
2022/11/30 06:20:40;;;;;;;18.90;13.18;;;4.20;67.60;;;;;;5012010;28;20022;-70
2022/11/30 06:23:06;;;;;;;27.35;15.75;;;4.20;67.10;;;;;;5030107;28;20115;-70
2022/11/30 06:25:34;;;;;;;22.60;14.02;;;4.20;66.80;;;;;;5036240;28;20063;-69
2022/11/30 06:27:59;;;;;;;23.42;14.30;;;4.20;67.50;;;;;;5039477;28;20037;-70
2022/11/30 06:30:25;;;;;;;21.05;14.20;;;4.20;66.70;;;;;;5034750;28;20538;-69
2022/11/30 06:32:51;;;;;;;19.50;12.90;;;4.20;66.40;;;;;;5027422;28;20033;-69
2022/11/30 06:35:18;;;;;;;19.20;12.50;;;4.20;66.40;;;;;;5022570;28;20029;-69
2022/11/30 06:37:43;;;;;;;22.48;13.80;;;4.20;66.20;;;;;;5020064;28;20041;-70
2022/11/30 06:40:11;;;;;;;20.58;13.50;;;4.20;66.50;;;;;;5034615;28;20337;-69
2022/11/30 06:42:37;;;;;;;19.55;12.70;;;4.20;66.40;;;;;;5022125;28;20026;-70
2022/11/30 06:45:07;;;;;;;18.45;11.45;;;4.20;67.10;;;;;;5033808;28;20032;-69
2022/11/30 06:47:33;;;;;;;19.13;11.65;;;4.20;67.10;;;;;;5012726;28;20022;-70
2022/11/30 06:49:58;;;;;;;30.38;15.57;;;4.20;66.20;;;;;;5021962;28;20029;-70
2022/11/30 06:52:24;;;;;;;19.15;11.25;;;4.20;66.20;;;;;;5029610;28;20403;-70
2022/11/30 06:54:50;;;;;;;18.00;11.43;;;4.20;65.90;;;;;;5027803;28;20413;-69
2022/11/30 06:57:16;;;;;;;21.25;12.23;;;4.20;66.00;;;;;;5035151;28;20036;-69
2022/11/30 06:59:42;;;;;;;22.00;13.15;;;4.20;66.50;;;;;;5043756;28;20042;-70
2022/11/30 07:02:12;;;;;;;18.02;10.65;;;4.20;66.10;;;;;;5017726;28;20104;-69
2022/11/30 07:04:37;;;;;;;21.88;13.65;;;4.30;65.50;;;;;;5040395;28;20064;-69
2022/11/30 07:07:03;;;;;;;21.70;13.60;;;4.30;65.70;;;;;;5033931;28;20428;-69
2022/11/30 07:09:33;;;;;;;23.50;13.80;;;4.30;66.40;;;;;;4998586;28;20033;-69
2022/11/30 07:11:58;;;;;;;31.27;17.98;;;4.30;66.80;;;;;;5021841;28;20034;-69
2022/11/30 07:14:24;;;;;;;31.27;16.48;;;4.30;67.30;;;;;;5033866;28;20425;-69
2022/11/30 07:16:51;;;;;;;31.95;17.83;;;4.20;67.30;;;;;;5036434;28;20033;-69
2022/11/30 07:19:17;;;;;;;29.10;16.15;;;4.20;67.50;;;;;;5039080;28;20037;-71
2022/11/30 07:21:42;;;;;;;28.33;16.60;;;4.20;67.70;;;;;;5039586;28;20030;-70
2022/11/30 07:26:54;;;;;;;30.95;16.98;;;4.30;67.40;;;;;;5030748;28;20040;-70
2022/11/30 07:29:19;;;;;;;35.88;19.00;;;4.20;69.00;;;;;;5037827;28;20029;-70
2022/11/30 07:31:51;;;;;;;31.73;16.85;;;4.30;69.10;;;;;;5037943;28;20079;-70
2022/11/30 07:34:17;;;;;;;43.13;21.13;;;4.30;70.40;;;;;;5035246;28;20024;-70
2022/11/30 07:36:43;;;;;;;39.75;20.98;;;4.30;72.90;;;;;;5039364;28;20075;-70
2022/11/30 07:39:08;;;;;;;38.83;20.33;;;4.30;75.70;;;;;;5038325;28;20027;-70
2022/11/30 07:41:34;;;;;;;38.90;20.52;;;4.20;77.20;;;;;;5039262;28;20076;-70
2022/11/30 07:43:59;;;;;;;42.38;21.98;;;4.20;78.70;;;;;;5031551;28;20080;-69
2022/11/30 07:46:25;;;;;;;41.65;21.67;;;4.20;79.70;;;;;;5019441;28;20033;-69
2022/11/30 07:48:51;;;;;;;45.70;22.52;;;4.10;80.60;;;;;;5019556;28;20026;-69
2022/11/30 07:51:19;;;;;;;46.00;22.13;;;4.10;81.10;;;;;;5019166;28;20579;-69
2022/11/30 07:53:45;;;;;;;48.83;23.20;;;4.20;81.00;;;;;;5002070;28;20037;-69
2022/11/30 07:56:13;;;;;;;56.38;25.60;;;4.20;80.80;;;;;;5019253;28;20037;-70
2022/11/30 07:58:39;;;;;;;51.80;25.10;;;4.30;81.30;;;;;;5038415;28;20032;-70
2022/11/30 08:01:10;;;;;;;40.90;20.77;;;4.30;82.70;;;;;;5038790;28;20017;-69
2022/11/30 08:03:36;;;;;;;37.88;19.50;;;4.30;83.40;;;;;;5038667;28;20103;-69
2022/11/30 08:06:14;;;;;;;35.10;18.70;;;4.30;83.50;;;;;;5039048;28;20021;-69
2022/11/30 08:08:43;;;;;;;31.35;16.75;;;4.30;84.50;;;;;;5018788;28;20061;-69
2022/11/30 08:11:14;;;;;;;28.30;14.73;;;4.40;84.30;;;;;;5036305;28;20028;-69
2022/11/30 08:13:40;;;;;;;26.65;14.18;;;4.40;87.10;;;;;;5037548;28;20140;-69
2022/11/30 08:16:15;;;;;;;26.77;15.20;;;4.40;89.40;;;;;;5020108;28;20030;-69
2022/11/30 08:18:42;;;;;;;28.95;14.80;;;4.40;89.30;;;;;;5018553;28;20028;-69
2022/11/30 08:21:09;;;;;;;31.23;15.95;;;4.50;89.70;;;;;;5035250;28;20033;-69
2022/11/30 08:23:38;;;;;;;26.02;15.35;;;4.50;90.70;;;;;;5020790;28;20060;-69
2022/11/30 08:26:13;;;;;;;29.05;14.88;;;4.50;90.10;;;;;;5038384;28;20032;-69
2022/11/30 08:28:39;;;;;;;25.27;13.38;;;4.60;89.80;;;;;;5019044;28;20037;-69
2022/11/30 08:31:08;;;;;;;22.67;13.70;;;4.70;90.90;;;;;;5035792;28;20036;-69
2022/11/30 08:33:35;;;;;;;19.88;11.30;;;4.80;91.20;;;;;;5022339;28;20056;-70
2022/11/30 08:36:07;;;;;;;17.63;10.20;;;4.80;93.40;;;;;;5018557;28;20076;-70
2022/11/30 08:38:34;;;;;;;19.45;11.43;;;4.80;94.50;;;;;;5000688;28;20057;-69
2022/11/30 08:40:59;;;;;;;20.95;11.85;;;4.80;95.80;;;;;;5018562;28;20284;-69
2022/11/30 08:43:26;;;;;;;20.95;11.68;;;4.80;95.10;;;;;;5017673;28;20101;-69
2022/11/30 08:45:52;;;;;;;17.27;11.02;;;4.90;94.50;;;;;;5030809;28;20076;-70
2022/11/30 08:48:18;;;;;;;15.95;9.25;;;5.00;94.50;;;;;;5018934;28;20307;-69
2022/11/30 08:50:44;;;;;;;18.40;10.50;;;5.10;94.20;;;;;;5038117;28;20109;-69
2022/11/30 08:53:09;;;;;;;17.40;9.80;;;5.10;96.10;;;;;;5027549;28;20033;-69
2022/11/30 08:55:35;;;;;;;15.73;8.73;;;5.00;95.80;;;;;;5028973;28;20105;-69
2022/11/30 08:58:00;;;;;;;14.70;8.25;;;5.10;94.90;;;;;;5029179;28;20041;-69
2022/11/30 09:00:29;;;;;;;15.93;8.55;;;5.10;95.30;;;;;;5016903;28;20025;-69
2022/11/30 09:02:55;;;;;;;13.90;8.07;;;5.20;95.70;;;;;;5024633;28;20101;-69
2022/11/30 09:05:23;;;;;;;12.00;7.32;;;5.30;96.50;;;;;;5029479;28;20030;-69
2022/11/30 09:07:49;;;;;;;14.65;8.88;;;5.40;96.30;;;;;;5036888;28;20033;-69
2022/11/30 09:10:14;;;;;;;13.75;9.15;;;5.40;98.00;;;;;;5036273;28;20022;-69
2022/11/30 09:12:40;;;;;;;13.48;7.88;;;5.40;98.00;;;;;;5017751;28;20034;-69
2022/11/30 09:15:07;;;;;;;12.57;7.20;;;5.40;97.30;;;;;;5016736;28;20373;-69
2022/11/30 09:17:33;;;;;;;12.75;7.90;;;5.60;98.00;;;;;;5020711;28;20033;-70
2022/11/30 09:20:00;;;;;;;13.13;7.45;;;5.70;98.00;;;;;;5037406;28;20036;-69
2022/11/30 09:22:26;;;;;;;10.55;6.32;;;5.70;98.00;;;;;;5032390;28;20034;-69
2022/11/30 09:24:52;;;;;;;10.43;6.57;;;5.70;98.00;;;;;;5037005;28;20040;-69
2022/11/30 09:27:18;;;;;;;10.32;6.22;;;5.70;98.00;;;;;;5035213;28;20026;-69
2022/11/30 09:29:43;;;;;;;11.05;6.07;;;5.60;98.00;;;;;;5016476;28;20481;-69
2022/11/30 09:32:12;;;;;;;11.05;6.28;;;5.70;98.00;;;;;;5017518;28;20091;-69
2022/11/30 09:34:40;;;;;;;16.58;10.35;;;5.60;98.00;;;;;;5017512;28;20034;-69
2022/11/30 09:37:05;;;;;;;22.33;12.55;;;5.60;98.00;;;;;;5030646;28;20108;-69
2022/11/30 09:39:31;;;;;;;21.73;12.07;;;5.70;98.00;;;;;;5037037;28;20112;-69
2022/11/30 09:42:35;;;;;;;26.17;14.88;;;5.70;97.50;;;;;;5025423;28;20030;-69
2022/11/30 09:45:15;;;;;;;25.90;14.25;;;5.60;97.10;;;;;;5002843;28;20040;-69
2022/11/30 09:48:07;;;;;;;28.48;14.65;;;5.70;96.70;;;;;;5033354;28;20414;-69
2022/11/30 09:50:41;;;;;;;25.08;13.73;;;5.70;96.80;;;;;;5035342;28;20030;-69
2022/11/30 09:53:11;;;;;;;;;;;5.70;96.40;;;;;;5024717;28;20036;-68
2022/11/30 09:55:40;;;;;;;24.67;14.43;;;5.70;97.20;;;;;;5036963;28;19927;-68
2022/11/30 09:58:10;;;;;;;25.55;14.45;;;5.80;97.60;;;;;;5017297;28;20029;-68
2022/11/30 10:00:39;;;;;;;31.42;15.95;;;5.80;98.00;;;;;;5015534;28;20045;-68
2022/11/30 10:03:05;;;;;;;27.42;14.55;;;5.80;96.90;;;;;;5016977;28;20050;-68
2022/11/30 10:05:33;;;;;;;24.05;14.32;;;5.80;97.00;;;;;;5022061;28;20031;-68
2022/11/30 10:08:05;;;;;;;32.17;18.13;;;5.80;97.70;;;;;;5019177;28;20022;-68
2022/11/30 10:10:42;;;;;;;26.52;15.23;;;5.80;97.40;;;;;;5016823;28;20092;-68
2022/11/30 10:13:26;;;;;;;24.35;14.43;;;5.70;96.50;;;;;;5016705;28;20036;-67
2022/11/30 10:16:04;;;;;;;24.33;14.02;;;5.70;96.90;;;;;;5016673;28;20034;-69
2022/11/30 10:18:57;;;;;;;22.85;14.10;;;5.70;96.30;;;;;;5018630;28;20307;-69
2022/11/30 10:21:41;;;;;;;28.33;14.73;;;5.70;96.60;;;;;;5033619;28;20025;-69
2022/11/30 10:24:35;;;;;;;20.92;12.63;;;5.70;97.40;;;;;;5036422;28;20329;-68
2022/11/30 10:27:10;;;;;;;;;;;5.70;98.00;;;;;;5021095;28;20041;-68
2022/11/30 10:29:40;;;;;;;35.55;18.48;;;5.70;98.00;;;;;;5015294;28;19909;-69
2022/11/30 10:32:18;;;;;;;24.40;13.82;;;5.80;98.00;;;;;;5016527;28;20048;-68
2022/11/30 10:35:09;;;;;;;25.30;13.80;;;5.80;98.00;;;;;;5016421;28;20030;-68
2022/11/30 10:37:38;;;;;;;16.83;9.57;;;5.90;98.00;;;;;;5014901;28;20136;-68
2022/11/30 10:40:11;;;;;;;17.25;10.63;;;6.10;98.00;;;;;;5016348;28;20109;-68
2022/11/30 10:42:49;;;;;;;18.50;11.20;;;6.20;98.00;;;;;;5025012;28;20014;-68
2022/11/30 10:45:21;;;;;;;21.98;13.13;;;6.40;98.00;;;;;;5034787;28;20031;-69
2022/11/30 10:48:09;;;;;;;142.48;72.10;;;6.50;98.00;;;;;;5033284;28;20042;-68
2022/11/30 10:50:34;;;;;;;26.10;15.45;;;6.60;98.00;;;;;;5018400;28;20029;-68
2022/11/30 10:53:01;;;;;;;15.95;8.88;;;6.70;98.00;;;;;;5035994;28;20479;-69
2022/11/30 10:55:30;;;;;;;14.35;8.73;;;6.70;98.00;;;;;;5035273;28;20029;-67
2022/11/30 10:58:09;;;;;;;20.75;13.25;;;6.70;98.00;;;;;;5029190;28;20057;-68
2022/11/30 11:00:35;;;;;;;24.98;15.00;;;6.60;98.00;;;;;;5030412;28;20095;-68
2022/11/30 11:03:00;;;;;;;18.65;10.90;;;6.30;98.00;;;;;;5009485;28;20026;-69
2022/11/30 11:05:30;;;;;;;14.85;8.88;;;6.20;98.00;;;;;;5017839;28;20415;-68
2022/11/30 11:08:01;;;;;;;16.52;9.88;;;6.10;98.00;;;;;;5033717;28;20295;-68
2022/11/30 11:10:48;;;;;;;21.77;14.02;;;6.00;98.00;;;;;;5035750;28;20056;-68
2022/11/30 11:13:18;;;;;;;21.17;11.90;;;6.00;98.00;;;;;;5034656;28;20104;-68
2022/11/30 11:15:56;;;;;;;31.75;18.27;;;5.70;98.00;;;;;;5034597;28;20079;-68
2022/11/30 11:18:25;;;;;;;29.77;18.08;;;5.60;98.00;;;;;;5035618;28;20116;-68
2022/11/30 11:21:02;;;;;;;22.15;13.30;;;5.40;95.70;;;;;;5035599;28;20025;-68
2022/11/30 11:23:36;;;;;;;23.40;13.60;;;5.40;96.40;;;;;;5035376;28;20037;-68
2022/11/30 11:26:04;;;;;;;21.92;13.48;;;5.50;97.20;;;;;;5035494;28;20410;-69
2022/11/30 11:28:33;;;;;;;17.83;10.90;;;5.60;97.20;;;;;;5029241;28;20105;-68
2022/11/30 11:30:58;;;;;;;19.35;10.40;;;5.60;98.00;;;;;;5015834;28;20418;-68
2022/11/30 11:33:28;;;;;;;20.98;12.55;;;5.70;98.00;;;;;;5016345;28;20053;-68
2022/11/30 11:36:13;;;;;;;18.90;11.23;;;5.60;98.00;;;;;;5015761;28;20080;-68
2022/11/30 11:38:42;;;;;;;35.13;19.45;;;5.40;98.00;;;;;;5015490;28;20034;-69
2022/11/30 11:41:28;;;;;;;21.30;12.77;;;5.40;98.00;;;;;;5015762;28;20029;-69
2022/11/30 11:44:20;;;;;;;15.98;10.30;;;5.30;98.00;;;;;;5014513;28;20141;-68
2022/11/30 11:47:05;;;;;;;14.82;8.30;;;5.40;98.00;;;;;;5010201;28;20037;-69
2022/11/30 11:49:34;;;;;;;15.85;9.45;;;5.30;98.00;;;;;;5011858;28;20040;-68
2022/11/30 11:52:07;;;;;;;13.88;8.50;;;5.30;98.00;;;;;;5034148;28;20088;-68
2022/11/30 11:54:46;;;;;;;11.27;7.43;;;5.30;98.00;;;;;;5035337;28;20102;-69
2022/11/30 11:57:14;;;;;;;11.40;6.82;;;5.40;98.00;;;;;;5035551;28;20142;-69
2022/11/30 11:59:55;;;;;;;10.38;6.22;;;5.30;98.00;;;;;;5035857;28;20025;-68
2022/11/30 12:02:42;;;;;;;8.30;4.90;;;5.30;98.00;;;;;;5039061;28;20322;-68
2022/11/30 12:05:17;;;;;;;9.13;5.63;;;5.30;98.00;;;;;;5034973;28;20033;-68
2022/11/30 12:08:04;;;;;;;9.07;5.07;;;5.30;98.00;;;;;;5031573;28;20017;-69
2022/11/30 12:11:20;;;;;;;7.85;4.68;;;5.40;98.00;;;;;;5038809;28;20033;-69
2022/11/30 12:13:47;;;;;;;8.32;4.60;;;5.40;98.00;;;;;;4973913;28;20046;-68
2022/11/30 12:16:42;;;;;;;6.25;3.42;;;5.30;98.00;;;;;;5018761;28;20061;-69
2022/11/30 12:19:16;;;;;;;7.70;4.38;;;5.40;98.00;;;;;;5034333;28;20092;-69
2022/11/30 12:21:41;;;;;;;5.18;2.88;;;5.50;98.00;;;;;;5026269;28;20100;-69
2022/11/30 12:24:47;;;;;;;3.70;2.10;;;5.60;98.00;;;;;;5038604;28;20075;-69
2022/11/30 12:27:29;;;;;;;37.70;17.25;;;5.80;98.00;;;;;;5038539;28;20036;-68
2022/11/30 12:30:14;;;;;;;4.38;2.47;;;5.80;98.00;;;;;;5037222;28;20022;-68
2022/11/30 12:32:39;;;;;;;;;;;5.80;98.00;;;;;;5038907;28;20029;-68
2022/11/30 12:35:29;;;;;;;4.93;2.58;;;5.70;98.00;;;;;;5053986;28;20265;-68
2022/11/30 12:38:28;;;;;;;4.10;2.10;;;5.70;98.00;;;;;;5037365;28;20322;-68
2022/11/30 12:41:01;;;;;;;4.07;2.17;;;5.70;98.00;;;;;;5038086;28;20445;-68
2022/11/30 12:43:30;;;;;;;4.22;2.00;;;5.60;98.00;;;;;;5037135;28;20037;-68
2022/11/30 12:46:13;;;;;;;4.20;2.10;;;5.60;98.00;;;;;;5055053;28;20052;-69
2022/11/30 12:49:04;;;;;;;4.65;2.42;;;5.70;98.00;;;;;;5038194;28;20030;-69
2022/11/30 12:51:40;;;;;;;4.43;1.92;;;5.70;98.00;;;;;;5043916;28;20037;-68
2022/11/30 12:54:29;;;;;;;3.55;1.92;;;5.80;98.00;;;;;;5038064;28;20108;-68
2022/11/30 12:57:22;;;;;;;7.25;4.07;;;5.70;98.00;;;;;;5053585;28;20056;-68